createdAt,value
2019-01-22T00:05:34.406Z,21.6
2019-01-22T00:15:33.613Z,21.6
2019-01-22T00:25:32.825Z,21.6
2019-01-22T00:35:32.030Z,21.6
2019-01-22T00:45:31.285Z,21.6
2019-01-22T00:55:30.443Z,21.6
2019-01-22T01:05:29.651Z,21.6
2019-01-22T01:15:28.858Z,21.6
2019-01-22T01:25:28.068Z,21.6
2019-01-22T01:35:27.272Z,21.6
2019-01-22T01:45:26.481Z,21.6
2019-01-22T01:55:25.687Z,21.6
2019-01-22T02:05:24.895Z,21.6
2019-01-22T02:15:24.104Z,21.6
2019-01-22T02:25:23.309Z,21.6
2019-01-22T02:35:22.516Z,21.5
2019-01-22T02:45:21.722Z,21.6
2019-01-22T02:55:20.930Z,21.5
2019-01-22T03:05:20.138Z,21.5
2019-01-22T03:15:19.344Z,21.5
2019-01-22T03:25:18.551Z,21.5
2019-01-22T03:35:17.757Z,21.5
2019-01-22T03:45:16.966Z,21.5
2019-01-22T03:55:16.172Z,21.5
2019-01-22T04:05:15.381Z,21.6
2019-01-22T04:15:14.587Z,21.6
2019-01-22T04:25:13.794Z,21.7
2019-01-22T04:35:13.005Z,21.9
2019-01-22T04:45:13.325Z,21.9
2019-01-22T04:55:11.428Z,21.8
2019-01-22T05:05:10.691Z,21.8
2019-01-22T05:15:09.855Z,21.9
2019-01-22T05:25:09.066Z,21.8
2019-01-22T05:35:08.282Z,21.9
2019-01-22T05:45:07.496Z,21.9
2019-01-22T05:55:06.709Z,21.9
2019-01-22T06:05:05.920Z,22.1
2019-01-22T06:15:05.136Z,22.1
2019-01-22T06:25:04.349Z,22.1
2019-01-22T06:35:03.552Z,22.2
2019-01-22T06:45:02.756Z,22.2
2019-01-22T06:55:01.965Z,22
2019-01-22T07:05:01.171Z,21.9
2019-01-22T07:15:00.379Z,22.1
2019-01-22T07:25:04.574Z,22.1
2019-01-22T07:34:58.791Z,22.1
2019-01-22T07:44:58.000Z,22.2
2019-01-22T07:54:57.206Z,22.1
2019-01-22T08:04:56.410Z,22.2
2019-01-22T08:14:55.618Z,22.1
2019-01-22T08:25:00.540Z,22.2
2019-01-22T08:34:54.032Z,22.1
2019-01-22T08:44:53.236Z,22.1
2019-01-22T08:54:52.441Z,22.2
2019-01-22T09:04:51.647Z,22.1
2019-01-22T09:14:50.854Z,22.2
2019-01-22T09:24:50.060Z,22.2
2019-01-22T09:34:49.265Z,22.2
2019-01-22T09:44:48.470Z,22.2
2019-01-22T09:54:47.675Z,22.1
2019-01-22T10:04:46.881Z,22.1
2019-01-22T10:14:46.086Z,22.1
2019-01-22T10:24:45.292Z,22.1
2019-01-22T10:34:44.501Z,22.1
2019-01-22T10:44:43.702Z,22.1
2019-01-22T10:54:42.908Z,22.1
2019-01-22T11:04:42.123Z,22.1
2019-01-22T11:14:41.318Z,22
2019-01-22T11:24:40.528Z,22.2
2019-01-22T11:34:39.728Z,22.1
2019-01-22T11:44:38.933Z,22.1
2019-01-22T11:54:38.139Z,22.1
2019-01-22T12:04:37.342Z,22.1
2019-01-22T12:14:36.547Z,22.1
2019-01-22T12:24:35.751Z,22.1
2019-01-22T12:34:34.965Z,22.1
2019-01-22T12:44:34.169Z,22.1
2019-01-22T12:54:33.368Z,22.1
2019-01-22T13:04:32.569Z,22.1
2019-01-22T13:14:31.775Z,22.2
2019-01-22T13:24:30.987Z,22.1
2019-01-22T13:34:30.192Z,22.1
2019-01-22T13:44:29.397Z,22.1
2019-01-22T13:54:28.604Z,22.1
2019-01-22T14:04:27.816Z,22.2
2019-01-22T14:14:27.027Z,22.2
2019-01-22T14:24:26.246Z,22.1
2019-01-22T14:34:25.448Z,22.1
2019-01-22T14:44:24.661Z,22.2
2019-01-22T14:54:23.871Z,22.1
2019-01-22T15:04:23.085Z,22.1
2019-01-22T15:14:22.292Z,22.1
2019-01-22T15:24:21.500Z,22.1
2019-01-22T15:34:20.714Z,22.1
2019-01-22T15:44:19.923Z,22.1
2019-01-22T15:54:19.139Z,22.1
2019-01-22T16:04:18.346Z,22.1
2019-01-22T16:14:17.555Z,22.2
2019-01-22T16:24:16.767Z,22.1
2019-01-22T16:34:15.981Z,22.2
2019-01-22T16:44:15.223Z,22.3
2019-01-22T16:54:14.408Z,22.3
2019-01-22T17:04:13.615Z,22.3
2019-01-22T17:14:12.824Z,22.2
2019-01-22T17:24:12.206Z,22
2019-01-22T17:34:11.249Z,22
2019-01-22T17:44:11.124Z,22.1
2019-01-22T17:54:09.724Z,22
2019-01-22T18:04:08.887Z,22.1
2019-01-22T18:14:08.276Z,22.1
2019-01-22T18:24:07.476Z,22.1
2019-01-22T18:34:06.509Z,22.1
2019-01-22T18:44:05.721Z,22.2
2019-01-22T18:54:05.211Z,21.9
2019-01-22T19:04:04.149Z,21.9
2019-01-22T19:14:03.366Z,22.2
2019-01-22T19:24:02.583Z,22.2
2019-01-22T19:34:01.804Z,22.3
2019-01-22T19:44:01.028Z,22.3
2019-01-22T19:54:00.247Z,22.4
2019-01-22T20:03:59.469Z,22.3
2019-01-22T20:13:58.682Z,22.2
2019-01-22T20:23:57.935Z,22.1
2019-01-22T20:33:57.113Z,22.4
2019-01-22T20:43:56.328Z,22.3
2019-01-22T20:53:55.552Z,22.3
2019-01-22T21:03:54.770Z,22.2
2019-01-22T21:13:53.980Z,22.1
2019-01-22T21:23:53.194Z,22.1
2019-01-22T21:33:52.408Z,22.1
2019-01-22T21:43:51.615Z,22
2019-01-22T21:53:50.827Z,21.9
2019-01-22T22:03:50.045Z,22
2019-01-22T22:13:49.255Z,22
2019-01-22T22:23:48.469Z,21.9
2019-01-22T22:33:47.677Z,21.9
2019-01-22T22:43:46.889Z,21.9
2019-01-22T22:53:46.099Z,21.8
2019-01-22T23:03:45.312Z,21.8
2019-01-22T23:13:44.519Z,21.8
2019-01-22T23:23:43.733Z,21.8
2019-01-22T23:33:42.939Z,21.8
2019-01-22T23:43:42.147Z,21.8
2019-01-22T23:53:41.358Z,21.8
